RBA872 WMKK-WBSB
Flight info
| Callsign | RBA872 |
|---|---|
| Flight time | N/A |
| Altitude | 35000 |
| Route | KIMAT1D KIMAT Y344 VPK M758 OLKIT M759 BRU |
| Aircraft | A20N/M-SDE2E3FGHIRWXY/LB1 |
Departure
| Time | 2026-04-30 11:06 |
|---|---|
| Airport | Kuala Lumpur International Airport (WMKK) |
Arrival
| Time | N/A |
|---|---|
| Airport | Brunei International Airport (WBSB) |
| Time | Latitude | Longitude | Altitude | Speed | Heading |
|---|---|---|---|---|---|
| 2026-04-30 10:41 | 2.74987 | 101.71510 | 75 ft | 0 kts | 146° |
| 2026-04-30 10:56 | 2.74990 | 101.71508 | 75 ft | 2 kts | 147° |
| 2026-04-30 10:56 | 2.75002 | 101.71500 | 75 ft | 2 kts | 146° |
| 2026-04-30 10:56 | 2.75015 | 101.71491 | 75 ft | 2 kts | 146° |
| 2026-04-30 10:56 | 2.75023 | 101.71486 | 75 ft | 2 kts | 146° |
| 2026-04-30 10:57 | 2.75031 | 101.71481 | 75 ft | 2 kts | 143° |
| 2026-04-30 10:57 | 2.75041 | 101.71468 | 75 ft | 2 kts | 109° |
| 2026-04-30 10:57 | 2.75043 | 101.71458 | 75 ft | 2 kts | 91° |
| 2026-04-30 10:57 | 2.75040 | 101.71441 | 75 ft | 1 kts | 62° |
| 2026-04-30 10:58 | 2.75039 | 101.71439 | 75 ft | 0 kts | 57° |
| 2026-04-30 10:58 | 2.75034 | 101.71433 | 75 ft | 0 kts | 55° |
| 2026-04-30 11:01 | 2.75040 | 101.71440 | 75 ft | 2 kts | 56° |
| 2026-04-30 11:01 | 2.75055 | 101.71463 | 75 ft | 5 kts | 56° |
| 2026-04-30 11:01 | 2.75070 | 101.71485 | 75 ft | 7 kts | 56° |
| 2026-04-30 11:02 | 2.75105 | 101.71537 | 75 ft | 10 kts | 56° |
| 2026-04-30 11:02 | 2.75147 | 101.71598 | 75 ft | 9 kts | 56° |
| 2026-04-30 11:02 | 2.75184 | 101.71661 | 75 ft | 12 kts | 58° |
| 2026-04-30 11:02 | 2.75179 | 101.71745 | 75 ft | 14 kts | 140° |
| 2026-04-30 11:03 | 2.75093 | 101.71803 | 75 ft | 16 kts | 146° |
| 2026-04-30 11:03 | 2.75000 | 101.71865 | 75 ft | 17 kts | 146° |
| 2026-04-30 11:03 | 2.74908 | 101.71928 | 75 ft | 19 kts | 146° |
| 2026-04-30 11:04 | 2.74719 | 101.72054 | 75 ft | 14 kts | 145° |
| 2026-04-30 11:04 | 2.74668 | 101.72098 | 75 ft | 7 kts | 102° |
| 2026-04-30 11:04 | 2.74691 | 101.72147 | 75 ft | 8 kts | 55° |
| 2026-04-30 11:04 | 2.74727 | 101.72199 | 75 ft | 9 kts | 56° |
| 2026-04-30 11:05 | 2.74771 | 101.72240 | 75 ft | 9 kts | 9° |
| 2026-04-30 11:05 | 2.74825 | 101.72218 | 75 ft | 3 kts | 326° |
| 2026-04-30 11:05 | 2.74831 | 101.72214 | 75 ft | 0 kts | 326° |
| 2026-04-30 11:05 | 2.74864 | 101.72192 | 75 ft | 28 kts | 326° |
| 2026-04-30 11:06 | 2.75233 | 101.71944 | 75 ft | 96 kts | 326° |
| 2026-04-30 11:06 | 2.75954 | 101.71461 | 75 ft | 151 kts | 326° |
| 2026-04-30 11:06 | 2.76914 | 101.70819 | 405 ft | 166 kts | 326° |
| 2026-04-30 11:06 | 2.77838 | 101.70204 | 1067 ft | 157 kts | 327° |
| 2026-04-30 11:07 | 2.78689 | 101.69639 | 1630 ft | 154 kts | 328° |
| 2026-04-30 11:07 | 2.79588 | 101.69044 | 2020 ft | 161 kts | 331° |
| 2026-04-30 11:07 | 2.80641 | 101.68521 | 2310 ft | 174 kts | 342° |
| 2026-04-30 11:07 | 2.81851 | 101.68168 | 2612 ft | 188 kts | 346° |
| 2026-04-30 11:08 | 2.83162 | 101.67750 | 2923 ft | 205 kts | 343° |
| 2026-04-30 11:08 | 2.84581 | 101.67264 | 3249 ft | 222 kts | 343° |
| 2026-04-30 11:08 | 2.86109 | 101.66724 | 3515 ft | 244 kts | 342° |
| 2026-04-30 11:08 | 2.86257 | 101.66671 | 3556 ft | 245 kts | 342° |
| 2026-04-30 11:09 | 2.87818 | 101.66110 | 4183 ft | 250 kts | 342° |
| 2026-04-30 11:09 | 2.89290 | 101.65576 | 4860 ft | 250 kts | 342° |
| 2026-04-30 11:09 | 2.91049 | 101.65149 | 5592 ft | 249 kts | 2° |
| 2026-04-30 11:09 | 2.92738 | 101.65500 | 6071 ft | 258 kts | 27° |
| 2026-04-30 11:10 | 2.93976 | 101.66203 | 6517 ft | 265 kts | 32° |